createdAt,value
2022-11-03T00:01:01.001Z,95062.13
2022-11-03T00:03:29.047Z,95063.94
2022-11-03T00:06:07.579Z,95053.59
2022-11-03T00:08:38.011Z,95063.25
2022-11-03T00:24:37.656Z,95066.13
2022-11-03T00:27:05.558Z,95076.41
2022-11-03T00:29:33.416Z,95071.94
2022-11-03T00:32:01.333Z,95062.44
2022-11-03T00:34:29.207Z,95068.28
2022-11-03T00:36:57.054Z,95057.97
2022-11-03T00:39:24.983Z,95064.59
2022-11-03T00:41:54.251Z,95060.34
2022-11-03T00:44:22.101Z,95064.38
2022-11-03T00:46:50.015Z,95066.94
2022-11-03T00:49:18.146Z,95067.16
2022-11-03T00:51:46.035Z,95066.16
2022-11-03T00:54:13.854Z,95074.94
2022-11-03T00:56:44.303Z,95068.25
2022-11-03T00:59:13.549Z,95069.78
2022-11-03T01:01:47.158Z,95072.16
2022-11-03T01:04:34.746Z,95070.88
2022-11-03T01:07:03.703Z,95070.69
2022-11-03T01:09:35.242Z,95062.78
2022-11-03T01:12:05.195Z,95067.22
2022-11-03T01:14:36.585Z,95074.44
2022-11-03T01:17:06.478Z,95066.78
2022-11-03T01:19:34.392Z,95058.88
2022-11-03T01:22:06.455Z,95075.16
2022-11-03T01:24:37.601Z,95066.75
2022-11-03T01:27:05.545Z,95061.75
2022-11-03T01:29:34.787Z,95070.41
2022-11-03T01:32:02.655Z,95063.59
2022-11-03T01:34:31.166Z,95064.84
2022-11-03T01:36:59.731Z,95069.66
2022-11-03T01:39:27.793Z,95074.25
2022-11-03T01:41:55.803Z,95075.84
2022-11-03T01:44:37.102Z,95068.25
2022-11-03T01:47:15.752Z,95084.75
2022-11-03T01:49:48.125Z,95081.34
2022-11-03T01:52:21.294Z,95072.75
2022-11-03T01:54:53.092Z,95083.47
2022-11-03T01:57:25.623Z,95084.66
2022-11-03T01:59:58.086Z,95087.28
2022-11-03T02:02:26.835Z,95090.91
2022-11-03T02:04:56.130Z,95089.75
2022-11-03T02:07:27.993Z,95088.97
2022-11-03T02:09:55.862Z,95091.34
2022-11-03T02:12:24.345Z,95092.72
2022-11-03T02:14:57.640Z,95082.16
2022-11-03T02:17:28.984Z,95077.75
2022-11-03T02:20:01.204Z,95071.88
2022-11-03T02:22:44.892Z,95082.78
2022-11-03T02:25:19.275Z,95076.94
2022-11-03T02:27:48.675Z,95082.16
2022-11-03T02:30:16.653Z,95087.88
2022-11-03T02:32:55.882Z,95095.34
2022-11-03T02:35:29.624Z,95090.25
2022-11-03T02:38:01.084Z,95076.38
2022-11-03T02:40:33.618Z,95081.22
2022-11-03T02:43:05.381Z,95083.69
2022-11-03T02:45:33.575Z,95077.19
2022-11-03T02:48:04.159Z,95080.38
2022-11-03T02:50:34.905Z,95086.97
2022-11-03T02:53:03.204Z,95084.34
2022-11-03T02:55:38.299Z,95087.78
2022-11-03T02:58:14.826Z,95077.03
2022-11-03T03:00:47.818Z,95083.63
2022-11-03T03:03:20.827Z,95074.16
2022-11-03T03:05:51.533Z,95069.47
2022-11-03T03:08:22.251Z,95075.69
2022-11-03T03:10:50.479Z,95074.84
2022-11-03T03:13:23.718Z,95074.56
2022-11-03T03:16:04.850Z,95083.66
2022-11-03T03:18:43.283Z,95081.84
2022-11-03T03:21:16.356Z,95081.06
2022-11-03T03:23:49.849Z,95081.13
2022-11-03T03:26:25.115Z,95079.94
2022-11-03T03:28:58.551Z,95084.91
2022-11-03T03:31:28.994Z,95080.66
2022-11-03T03:34:04.635Z,95076.38
2022-11-03T03:36:40.849Z,95083.84
2022-11-03T03:39:11.360Z,95078.78
2022-11-03T03:41:40.498Z,95077.34
2022-11-03T03:44:11.587Z,95088.38
2022-11-03T03:46:44.504Z,95084.69
2022-11-03T03:49:12.493Z,95083.81
2022-11-03T03:51:40.578Z,95083.38
2022-11-03T03:54:08.533Z,95083.72
2022-11-03T03:56:45.005Z,95091.28
2022-11-03T03:59:14.343Z,95083.00
2022-11-03T04:01:42.295Z,95078.94
2022-11-03T04:04:10.348Z,95090.03
2022-11-03T04:06:38.206Z,95090.41
2022-11-03T04:09:06.079Z,95095.66
2022-11-03T04:11:51.546Z,95090.16
2022-11-03T04:14:38.138Z,95094.66
2022-11-03T04:17:23.414Z,95092.56
2022-11-03T04:20:08.716Z,95084.56
2022-11-03T04:22:36.686Z,95091.50
2022-11-03T04:25:04.875Z,95094.91
2022-11-03T04:27:34.720Z,95089.50
2022-11-03T04:30:15.324Z,95086.44
2022-11-03T04:32:43.883Z,95080.84
2022-11-03T04:35:17.426Z,95083.47
2022-11-03T04:37:47.774Z,95086.19
2022-11-03T04:40:17.716Z,95083.91
2022-11-03T04:42:46.517Z,95083.00
2022-11-03T04:45:25.409Z,95091.00
2022-11-03T04:47:54.222Z,95084.53
2022-11-03T04:50:23.850Z,95084.72
2022-11-03T04:52:56.571Z,95079.78
2022-11-03T04:55:25.286Z,95085.84
2022-11-03T04:57:58.425Z,95086.66
2022-11-03T05:00:27.804Z,95085.19
2022-11-03T05:02:56.555Z,95085.56
2022-11-03T05:05:26.593Z,95086.19
2022-11-03T05:07:57.713Z,95084.75
2022-11-03T05:10:28.828Z,95094.09
2022-11-03T05:12:57.588Z,95094.72
2022-11-03T05:15:36.646Z,95089.34
2022-11-03T05:18:15.311Z,95095.16
2022-11-03T05:20:49.111Z,95099.09
2022-11-03T05:23:18.255Z,95108.69
2022-11-03T05:25:49.855Z,95071.97
2022-11-03T05:28:27.508Z,95101.44
2022-11-03T05:30:57.197Z,95097.41
2022-11-03T05:33:30.436Z,95113.91
2022-11-03T05:36:01.888Z,95123.19
2022-11-03T05:38:32.923Z,95108.31
2022-11-03T05:41:02.558Z,95124.25
2022-11-03T05:43:30.911Z,95133.53
2022-11-03T05:46:04.370Z,95130.66
2022-11-03T05:48:36.538Z,95129.47
2022-11-03T05:51:15.430Z,95132.00
2022-11-03T05:53:44.327Z,95139.38
2022-11-03T05:56:19.447Z,95143.78
2022-11-03T05:58:49.911Z,95148.19
2022-11-03T06:01:24.784Z,95143.59
2022-11-03T06:03:52.742Z,95143.22
2022-11-03T06:06:28.007Z,95142.63
2022-11-03T06:09:01.137Z,95154.94
2022-11-03T06:11:34.640Z,95151.47
2022-11-03T06:14:12.353Z,95142.53
2022-11-03T06:16:45.418Z,95167.34
2022-11-03T06:19:23.229Z,95165.56
2022-11-03T06:21:52.982Z,95168.44
2022-11-03T06:24:23.097Z,95156.28
2022-11-03T06:26:52.816Z,95168.88
2022-11-03T06:29:22.236Z,95178.91
2022-11-03T06:31:55.258Z,95180.25
2022-11-03T06:34:37.978Z,95173.06
2022-11-03T06:37:21.358Z,95171.59
2022-11-03T06:39:50.609Z,95173.84
2022-11-03T06:42:22.706Z,95178.81
2022-11-03T06:44:52.875Z,95176.66
2022-11-03T06:47:26.648Z,95180.88
2022-11-03T06:49:57.958Z,95173.31
2022-11-03T06:52:30.146Z,95187.38
2022-11-03T06:55:13.683Z,95192.44
2022-11-03T06:57:47.378Z,95186.13
2022-11-03T07:00:39.895Z,95190.63
2022-11-03T07:03:15.386Z,95179.81
2022-11-03T07:05:45.267Z,95170.25
2022-11-03T07:08:22.592Z,95173.91
2022-11-03T07:10:53.227Z,95176.38
2022-11-03T07:13:24.842Z,95174.47
2022-11-03T07:15:53.380Z,95166.34
2022-11-03T07:18:28.622Z,95173.13
2022-11-03T07:20:58.756Z,95166.84
2022-11-03T07:23:30.342Z,95161.88
2022-11-03T07:26:00.586Z,95167.59
2022-11-03T07:28:34.750Z,95163.44
2022-11-03T07:31:16.296Z,95168.75
2022-11-03T07:33:47.896Z,95168.06
2022-11-03T07:36:22.281Z,95171.50
2022-11-03T07:38:53.054Z,95170.50
2022-11-03T07:41:22.322Z,95170.50
2022-11-03T07:44:00.406Z,95162.66
2022-11-03T07:46:34.971Z,95159.91
2022-11-03T07:49:09.443Z,95162.31
2022-11-03T07:51:40.793Z,95156.09
2022-11-03T07:54:21.497Z,95148.47
2022-11-03T07:56:55.365Z,95152.72
2022-11-03T07:59:28.481Z,95152.41
2022-11-03T08:01:58.592Z,95149.06
2022-11-03T08:04:31.035Z,95145.34
2022-11-03T08:06:59.118Z,95137.78
2022-11-03T08:09:27.465Z,95142.91
2022-11-03T08:11:55.632Z,95128.19
2022-11-03T08:14:23.648Z,95138.31
2022-11-03T08:16:51.624Z,95138.75
2022-11-03T08:19:31.143Z,95137.19
2022-11-03T08:22:00.888Z,95129.91
2022-11-03T08:24:28.835Z,95131.13
2022-11-03T08:26:57.023Z,95128.97
2022-11-03T08:29:27.316Z,95130.38
2022-11-03T08:31:56.448Z,95123.94
2022-11-03T08:34:24.594Z,95119.34
2022-11-03T08:36:52.472Z,95116.31
2022-11-03T08:39:22.052Z,95114.50
2022-11-03T08:41:50.050Z,95120.56
2022-11-03T08:44:18.144Z,95126.22
2022-11-03T08:46:46.078Z,95127.22
2022-11-03T08:49:13.969Z,95125.22
2022-11-03T08:51:44.635Z,95130.34
2022-11-03T08:54:14.388Z,95118.06
2022-11-03T08:56:44.614Z,95123.09
2022-11-03T08:59:12.519Z,95129.56
2022-11-03T09:01:40.538Z,95127.34
2022-11-03T09:04:08.700Z,95122.09
2022-11-03T09:06:36.758Z,95119.47
2022-11-03T09:11:54.050Z,95121.22
2022-11-03T09:14:22.094Z,95121.34
2022-11-03T09:16:50.064Z,95116.09
2022-11-03T09:19:18.100Z,95100.63
2022-11-03T09:21:46.031Z,95093.69
2022-11-03T09:24:13.964Z,95098.69
2022-11-03T09:26:42.004Z,95091.34
2022-11-03T09:29:11.329Z,95088.69
2022-11-03T09:31:39.416Z,95086.03
2022-11-03T09:34:07.389Z,95089.88
2022-11-03T09:36:35.279Z,95073.00
2022-11-03T09:39:03.185Z,95084.88
2022-11-03T09:41:56.078Z,95071.56
2022-11-03T09:44:33.415Z,95072.78
2022-11-03T09:47:02.161Z,95061.88
2022-11-03T09:49:32.956Z,95047.59
2022-11-03T09:52:01.572Z,95068.50
2022-11-03T09:54:29.927Z,95052.16
2022-11-03T09:56:59.476Z,95055.41
2022-11-03T09:59:29.049Z,95055.09
2022-11-03T10:01:57.507Z,95052.38
2022-11-03T10:04:28.756Z,95043.75
2022-11-03T10:06:57.890Z,95046.47
2022-11-03T10:09:27.132Z,95037.56
2022-11-03T10:11:56.072Z,95040.81
2022-11-03T10:14:24.711Z,95031.56
2022-11-03T10:17:00.261Z,95028.16
2022-11-03T10:19:28.193Z,95029.19
2022-11-03T10:21:56.088Z,95023.78
2022-11-03T10:24:24.016Z,95016.28
2022-11-03T10:26:55.173Z,95012.00
2022-11-03T10:29:24.600Z,95012.28
2022-11-03T10:31:55.344Z,95006.63
2022-11-03T10:34:29.185Z,95000.50
2022-11-03T10:37:20.991Z,95000.56
2022-11-03T10:39:49.821Z,94988.56
2022-11-03T10:42:20.865Z,94990.88
2022-11-03T10:44:49.657Z,94989.81
2022-11-03T10:47:28.363Z,94979.09
2022-11-03T10:49:56.629Z,94983.13
2022-11-03T10:52:26.690Z,94968.50
2022-11-03T10:54:57.610Z,94970.34
2022-11-03T10:57:26.506Z,94967.16
2022-11-03T10:59:55.602Z,94957.63
2022-11-03T11:02:26.720Z,94954.00
2022-11-03T11:05:00.870Z,94948.16
2022-11-03T11:07:35.655Z,94935.22
2022-11-03T11:10:08.999Z,94942.56
2022-11-03T11:12:37.836Z,94938.50
2022-11-03T11:15:42.407Z,94933.22
2022-11-03T11:18:13.182Z,94937.94
2022-11-03T11:20:42.547Z,94923.09
2022-11-03T11:23:50.190Z,94926.84
2022-11-03T11:26:43.956Z,94923.91
2022-11-03T11:29:42.821Z,94918.59
2022-11-03T11:32:50.373Z,94921.50
2022-11-03T11:35:35.477Z,94911.06
2022-11-03T11:38:36.650Z,94904.19
2022-11-03T11:41:04.747Z,94896.69
2022-11-03T11:43:32.759Z,94901.53
2022-11-03T11:46:39.984Z,94895.91
2022-11-03T11:49:18.791Z,94882.59
2022-11-03T11:51:48.378Z,94893.25
2022-11-03T11:54:20.918Z,94871.63
2022-11-03T11:56:50.233Z,94885.97
2022-11-03T11:59:24.817Z,94877.47
2022-11-03T12:01:56.416Z,94877.25
2022-11-03T12:04:27.818Z,94880.47
2022-11-03T12:06:57.696Z,94867.94
2022-11-03T12:09:28.195Z,94866.22
2022-11-03T12:11:59.393Z,94861.19
2022-11-03T12:14:35.370Z,94857.94
2022-11-03T12:17:33.977Z,94852.06
2022-11-03T12:20:01.861Z,94856.66
2022-11-03T12:22:44.010Z,94855.31
2022-11-03T12:25:34.527Z,94853.03
2022-11-03T12:28:02.450Z,94843.38
2022-11-03T12:30:31.653Z,94848.47
2022-11-03T12:33:01.194Z,94836.88
2022-11-03T12:35:29.092Z,94842.19
2022-11-03T12:37:58.791Z,94839.75
2022-11-03T12:40:27.283Z,94834.31
2022-11-03T12:42:55.261Z,94827.72
2022-11-03T12:45:23.173Z,94832.31
2022-11-03T12:47:51.046Z,94826.50
2022-11-03T12:50:18.946Z,94825.50
2022-11-03T12:52:46.840Z,94833.38
2022-11-03T12:55:16.642Z,94824.72
2022-11-03T12:57:45.883Z,94821.22
2022-11-03T13:00:15.103Z,94809.41
2022-11-03T13:02:43.219Z,94817.56
2022-11-03T13:05:15.292Z,94812.22
2022-11-03T13:07:43.487Z,94809.22
2022-11-03T13:10:11.596Z,94814.16
2022-11-03T13:12:41.687Z,94808.19
2022-11-03T13:15:13.503Z,94803.66
2022-11-03T13:17:59.691Z,94803.38
2022-11-03T13:20:29.484Z,94801.56
2022-11-03T13:22:57.391Z,94803.50
2022-11-03T13:25:25.382Z,94792.75
2022-11-03T13:27:54.944Z,94799.91
2022-11-03T13:30:23.602Z,94793.06
2022-11-03T13:32:51.738Z,94786.16
2022-11-03T13:35:20.421Z,94790.63
2022-11-03T13:37:48.524Z,94789.63
2022-11-03T13:43:07.199Z,94782.88
2022-11-03T13:45:35.567Z,94782.94
2022-11-03T13:49:04.065Z,94792.94
2022-11-03T13:50:53.633Z,94782.81
2022-11-03T13:56:13.154Z,94783.41
2022-11-03T14:01:34.935Z,94777.25
2022-11-03T14:06:50.963Z,94786.66
2022-11-03T14:09:19.037Z,94781.56
2022-11-03T14:12:04.713Z,94787.97
2022-11-03T14:14:34.120Z,94780.19
2022-11-03T14:17:03.734Z,94780.44
2022-11-03T14:19:39.469Z,94784.13
2022-11-03T14:22:09.696Z,94783.53
2022-11-03T14:24:37.662Z,94784.38
2022-11-03T14:27:08.799Z,94788.25
2022-11-03T14:29:38.213Z,94787.13
2022-11-03T14:32:06.761Z,94787.63
2022-11-03T14:34:34.787Z,94782.84
2022-11-03T14:37:03.500Z,94782.72
2022-11-03T14:39:31.677Z,94785.06
2022-11-03T14:42:04.826Z,94783.75
2022-11-03T14:44:33.703Z,94787.41
2022-11-03T14:47:04.088Z,94779.47
2022-11-03T14:49:33.388Z,94784.81
2022-11-03T14:52:02.743Z,94777.09
2022-11-03T14:54:32.328Z,94782.63
2022-11-03T14:57:00.529Z,94786.88
2022-11-03T14:59:29.073Z,94781.84
2022-11-03T15:01:57.886Z,94782.00
2022-11-03T15:04:27.517Z,94786.88
2022-11-03T15:06:55.704Z,94779.59
2022-11-03T15:09:23.705Z,94781.31
2022-11-03T15:11:51.642Z,94789.06
2022-11-03T15:14:19.577Z,94773.91
2022-11-03T15:16:48.170Z,94780.00
2022-11-03T15:19:16.192Z,94786.50
2022-11-03T15:21:45.476Z,94781.50
2022-11-03T15:27:01.340Z,94777.00
2022-11-03T15:29:29.347Z,94774.59
2022-11-03T15:31:57.244Z,94774.09
2022-11-03T15:34:25.140Z,94773.72
2022-11-03T15:36:54.753Z,94774.41
2022-11-03T15:39:22.669Z,94775.25
2022-11-03T15:41:50.583Z,94773.53
2022-11-03T15:44:18.562Z,94773.00
2022-11-03T15:46:46.501Z,94768.59
2022-11-03T15:49:14.416Z,94771.47
2022-11-03T15:51:42.332Z,94770.09
2022-11-03T15:54:11.668Z,94771.94
2022-11-03T15:56:39.641Z,94773.66
2022-11-03T15:59:07.582Z,94771.41
2022-11-03T16:01:36.066Z,94769.84
2022-11-03T16:04:04.141Z,94774.75
2022-11-03T16:07:01.582Z,94780.22
2022-11-03T16:09:21.477Z,94781.16
2022-11-03T16:11:49.452Z,94776.50
2022-11-03T16:14:18.404Z,94788.94
2022-11-03T16:16:46.429Z,94783.41
2022-11-03T16:19:14.330Z,94788.03
2022-11-03T16:21:42.233Z,94781.28
2022-11-03T16:24:11.362Z,94781.59
2022-11-03T16:26:40.736Z,94802.28
2022-11-03T16:29:08.646Z,94811.50
2022-11-03T16:31:36.773Z,94800.50
2022-11-03T16:34:04.829Z,94800.34
2022-11-03T16:36:32.730Z,94804.38
2022-11-03T16:39:00.781Z,94799.50
2022-11-03T16:41:28.662Z,94799.00
2022-11-03T16:43:57.947Z,94793.41
2022-11-03T16:46:25.889Z,94799.16
2022-11-03T16:48:53.852Z,94805.28
2022-11-03T16:51:21.791Z,94793.41
2022-11-03T16:53:49.795Z,94798.03
2022-11-03T16:56:20.701Z,94801.28
2022-11-03T16:58:49.401Z,94798.09
2022-11-03T17:01:19.664Z,94799.47
2022-11-03T17:03:49.864Z,94792.91
2022-11-03T17:06:18.536Z,94786.84
2022-11-03T17:08:57.221Z,94790.47
2022-11-03T17:11:38.172Z,94790.88
2022-11-03T17:14:09.077Z,94788.91
2022-11-03T17:16:39.111Z,94790.59
2022-11-03T17:19:07.809Z,94785.00
2022-11-03T17:21:36.508Z,94795.50
2022-11-03T17:24:06.734Z,94783.22
2022-11-03T17:26:54.097Z,94801.22
2022-11-03T17:29:24.341Z,94804.75
2022-11-03T17:31:53.793Z,94802.69
2022-11-03T17:34:25.123Z,94796.47
2022-11-03T17:36:54.701Z,94797.25
2022-11-03T17:39:29.305Z,94795.25
2022-11-03T17:42:15.952Z,94787.78
2022-11-03T17:44:44.534Z,94795.69
2022-11-03T17:47:13.830Z,94787.22
2022-11-03T17:49:41.952Z,94782.19
2022-11-03T17:52:15.551Z,94779.19
2022-11-03T17:54:43.583Z,94784.81
2022-11-03T17:57:16.880Z,94785.25
2022-11-03T17:59:46.222Z,94785.66
2022-11-03T18:02:17.639Z,94792.31
2022-11-03T18:04:46.035Z,94790.91
2022-11-03T18:07:20.943Z,94780.63
2022-11-03T18:09:48.924Z,94786.25
2022-11-03T18:12:36.433Z,94779.22
2022-11-03T18:15:05.240Z,94784.47
2022-11-03T18:17:35.139Z,94775.78
2022-11-03T18:20:04.260Z,94784.03
2022-11-03T18:22:32.219Z,94788.09
2022-11-03T18:25:00.227Z,94785.03
2022-11-03T18:27:28.244Z,94776.94
2022-11-03T18:29:56.244Z,94779.78
2022-11-03T18:32:24.248Z,94776.91
2022-11-03T18:34:53.994Z,94779.97
2022-11-03T18:37:22.173Z,94771.69
2022-11-03T18:39:50.154Z,94775.13
2022-11-03T18:42:18.106Z,94773.50
2022-11-03T18:44:46.619Z,94764.66
2022-11-03T18:47:14.731Z,94776.91
2022-11-03T18:49:43.442Z,94773.50
2022-11-03T18:52:15.959Z,94768.44
2022-11-03T18:54:50.231Z,94767.84
2022-11-03T18:57:22.468Z,94785.78
2022-11-03T18:59:50.917Z,94783.16
2022-11-03T19:02:20.651Z,94784.78
2022-11-03T19:04:48.986Z,94777.53
2022-11-03T19:07:25.661Z,94786.81
2022-11-03T19:09:53.581Z,94767.06
2022-11-03T19:12:21.883Z,94769.47
2022-11-03T19:14:50.882Z,94767.47
2022-11-03T19:17:23.364Z,94755.78
2022-11-03T19:19:52.537Z,94744.69
2022-11-03T19:22:23.074Z,94745.09
2022-11-03T19:24:51.024Z,94752.34
2022-11-03T19:27:23.704Z,94756.94
2022-11-03T19:29:53.626Z,94759.38
2022-11-03T19:32:29.458Z,94763.56
2022-11-03T19:35:06.219Z,94764.38
2022-11-03T19:37:37.828Z,94770.63
2022-11-03T19:40:09.040Z,94765.75
2022-11-03T19:42:43.907Z,94777.28
2022-11-03T19:45:16.019Z,94764.16
2022-11-03T19:48:10.688Z,94763.97
2022-11-03T19:50:38.380Z,94766.97
2022-11-03T19:53:08.825Z,94776.22
2022-11-03T19:55:41.657Z,94777.03
2022-11-03T19:58:15.408Z,94775.41
2022-11-03T20:00:43.900Z,94762.88
2022-11-03T20:03:12.432Z,94760.63
2022-11-03T20:05:43.893Z,94764.22
2022-11-03T20:08:21.582Z,94766.19
2022-11-03T20:10:50.213Z,94768.59
2022-11-03T20:13:21.725Z,94768.94
2022-11-03T20:15:49.860Z,94763.78
2022-11-03T20:18:18.155Z,94753.81
2022-11-03T20:20:49.251Z,94750.75
2022-11-03T20:23:21.477Z,94754.09
2022-11-03T20:25:50.044Z,94753.31
2022-11-03T20:28:20.750Z,94758.94
2022-11-03T20:30:48.962Z,94752.06
2022-11-03T20:33:19.276Z,94760.53
2022-11-03T20:35:48.686Z,94769.38
2022-11-03T20:38:20.588Z,94763.72
2022-11-03T20:40:49.404Z,94768.97
2022-11-03T20:43:26.733Z,94781.84
2022-11-03T20:45:55.167Z,94772.00
2022-11-03T20:48:23.525Z,94768.50
2022-11-03T20:50:51.773Z,94769.38
2022-11-03T20:53:23.352Z,94770.31
2022-11-03T20:55:51.985Z,94771.13
2022-11-03T20:58:20.577Z,94770.50
2022-11-03T21:00:49.939Z,94764.88
2022-11-03T21:03:38.088Z,94763.66
2022-11-03T21:06:10.022Z,94764.75
2022-11-03T21:08:39.700Z,94772.97
2022-11-03T21:11:27.661Z,94756.03
2022-11-03T21:13:57.546Z,94758.31
2022-11-03T21:16:45.460Z,94758.44
2022-11-03T21:19:34.064Z,94763.91
2022-11-03T21:22:02.231Z,94766.91
2022-11-03T21:24:31.476Z,94766.16
2022-11-03T21:26:59.393Z,94770.81
2022-11-03T21:29:53.335Z,94764.78
2022-11-03T21:32:18.495Z,94755.94
2022-11-03T21:34:46.590Z,94743.94
2022-11-03T21:37:15.845Z,94750.06
2022-11-03T21:39:45.717Z,94752.28
2022-11-03T21:42:33.346Z,94754.13
2022-11-03T21:45:01.836Z,94754.56
2022-11-03T21:47:29.756Z,94748.78
2022-11-03T21:49:56.648Z,94746.38
2022-11-03T21:52:31.997Z,94741.94
2022-11-03T21:55:02.043Z,94729.66
2022-11-03T21:57:30.289Z,94739.09
2022-11-03T21:59:59.284Z,94730.63
2022-11-03T22:02:30.084Z,94730.38
2022-11-03T22:04:58.711Z,94722.34
2022-11-03T22:07:26.700Z,94723.72
2022-11-03T22:09:54.634Z,94726.09
2022-11-03T22:12:24.209Z,94722.69
2022-11-03T22:15:09.394Z,94724.31
2022-11-03T22:17:37.372Z,94723.13
2022-11-03T22:20:23.614Z,94718.22
2022-11-03T22:23:09.016Z,94716.25
2022-11-03T22:25:54.404Z,94712.13
2022-11-03T22:28:23.731Z,94714.75
2022-11-03T22:31:08.740Z,94706.97
2022-11-03T22:33:56.929Z,94702.38
2022-11-03T22:36:23.851Z,94696.47
2022-11-03T22:39:20.509Z,94695.06
2022-11-03T22:42:06.788Z,94698.31
2022-11-03T22:44:53.951Z,94684.78
2022-11-03T22:47:21.892Z,94688.41
2022-11-03T22:49:49.798Z,94683.38
2022-11-03T22:52:17.709Z,94688.78
2022-11-03T22:54:44.560Z,94679.78
2022-11-03T22:57:13.225Z,94681.31
2022-11-03T22:59:42.619Z,94686.13
2022-11-03T23:02:10.649Z,94678.91
2022-11-03T23:04:38.566Z,94683.31
2022-11-03T23:07:06.504Z,94680.47
2022-11-03T23:09:34.473Z,94689.34
2022-11-03T23:12:02.366Z,94683.16
2022-11-03T23:14:50.248Z,94684.34
2022-11-03T23:17:19.571Z,94687.28
2022-11-03T23:20:04.951Z,94691.94
2022-11-03T23:22:32.849Z,94692.94
2022-11-03T23:25:00.058Z,94681.06
2022-11-03T23:27:28.146Z,94680.97
2022-11-03T23:29:56.090Z,94690.03
2022-11-03T23:32:25.489Z,94688.16
2022-11-03T23:34:53.393Z,94681.34
2022-11-03T23:37:21.295Z,94682.97
2022-11-03T23:39:49.197Z,94684.84
2022-11-03T23:42:17.119Z,94681.53
2022-11-03T23:45:02.148Z,94674.16
2022-11-03T23:47:48.799Z,94687.38
2022-11-03T23:50:16.820Z,94679.56
2022-11-03T23:52:44.727Z,94683.78
2022-11-03T23:55:12.611Z,94686.75
2022-11-03T23:57:57.843Z,94675.59
